sensor_id;sensor_type;location;lat;lon;timestamp;P1;durP1;ratioP1;P2;durP2;ratioP2
2320;SDS011;15376;48.540;9.268;2024-03-25T00:01:51;2.60;;;2.40;;
2320;SDS011;15376;48.540;9.268;2024-03-25T00:04:16;2.90;;;2.70;;
2320;SDS011;15376;48.540;9.268;2024-03-25T00:06:41;2.63;;;2.43;;
2320;SDS011;15376;48.540;9.268;2024-03-25T00:09:07;3.07;;;2.67;;
2320;SDS011;15376;48.540;9.268;2024-03-25T00:11:38;4.10;;;3.10;;
2320;SDS011;15376;48.540;9.268;2024-03-25T00:14:04;6.30;;;3.33;;
2320;SDS011;15376;48.540;9.268;2024-03-25T00:16:29;4.23;;;2.97;;
2320;SDS011;15376;48.540;9.268;2024-03-25T00:18:54;3.17;;;2.83;;
2320;SDS011;15376;48.540;9.268;2024-03-25T00:21:20;5.17;;;2.77;;
2320;SDS011;15376;48.540;9.268;2024-03-25T00:23:45;4.03;;;3.03;;
2320;SDS011;15376;48.540;9.268;2024-03-25T00:26:10;3.90;;;2.97;;
2320;SDS011;15376;48.540;9.268;2024-03-25T00:28:36;4.23;;;2.93;;
2320;SDS011;15376;48.540;9.268;2024-03-25T00:31:02;6.07;;;3.00;;
2320;SDS011;15376;48.540;9.268;2024-03-25T00:33:27;4.90;;;3.07;;
2320;SDS011;15376;48.540;9.268;2024-03-25T00:35:53;3.87;;;3.37;;
2320;SDS011;15376;48.540;9.268;2024-03-25T00:38:18;6.37;;;3.00;;
2320;SDS011;15376;48.540;9.268;2024-03-25T00:40:44;3.40;;;3.10;;
2320;SDS011;15376;48.540;9.268;2024-03-25T00:43:09;3.07;;;2.70;;
2320;SDS011;15376;48.540;9.268;2024-03-25T00:45:35;6.17;;;2.77;;
2320;SDS011;15376;48.540;9.268;2024-03-25T00:48:00;6.53;;;2.70;;
2320;SDS011;15376;48.540;9.268;2024-03-25T00:50:26;4.10;;;3.70;;
2320;SDS011;15376;48.540;9.268;2024-03-25T00:52:52;5.27;;;3.30;;
2320;SDS011;15376;48.540;9.268;2024-03-25T00:55:17;8.10;;;3.17;;
2320;SDS011;15376;48.540;9.268;2024-03-25T00:57:42;3.97;;;2.73;;
2320;SDS011;15376;48.540;9.268;2024-03-25T01:00:08;3.20;;;2.40;;
2320;SDS011;15376;48.540;9.268;2024-03-25T01:02:34;5.00;;;3.53;;
2320;SDS011;15376;48.540;9.268;2024-03-25T01:04:59;2.90;;;2.60;;
2320;SDS011;15376;48.540;9.268;2024-03-25T01:07:25;5.83;;;3.73;;
2320;SDS011;15376;48.540;9.268;2024-03-25T01:09:51;3.40;;;3.00;;
2320;SDS011;15376;48.540;9.268;2024-03-25T01:12:16;3.27;;;2.97;;
2320;SDS011;15376;48.540;9.268;2024-03-25T01:14:41;6.20;;;3.20;;
2320;SDS011;15376;48.540;9.268;2024-03-25T01:17:07;4.43;;;3.70;;
2320;SDS011;15376;48.540;9.268;2024-03-25T01:19:32;4.37;;;3.47;;
2320;SDS011;15376;48.540;9.268;2024-03-25T01:21:57;3.67;;;3.37;;
2320;SDS011;15376;48.540;9.268;2024-03-25T01:24:22;5.00;;;3.63;;
2320;SDS011;15376;48.540;9.268;2024-03-25T01:26:48;3.70;;;2.87;;
2320;SDS011;15376;48.540;9.268;2024-03-25T01:29:13;4.73;;;3.53;;
2320;SDS011;15376;48.540;9.268;2024-03-25T01:31:39;7.20;;;3.23;;
2320;SDS011;15376;48.540;9.268;2024-03-25T01:34:04;4.80;;;2.67;;
2320;SDS011;15376;48.540;9.268;2024-03-25T01:36:30;10.37;;;3.07;;
2320;SDS011;15376;48.540;9.268;2024-03-25T01:38:56;3.90;;;3.20;;
2320;SDS011;15376;48.540;9.268;2024-03-25T01:41:22;6.57;;;3.47;;
2320;SDS011;15376;48.540;9.268;2024-03-25T01:43:48;3.20;;;2.90;;
2320;SDS011;15376;48.540;9.268;2024-03-25T01:46:13;5.67;;;3.33;;
2320;SDS011;15376;48.540;9.268;2024-03-25T01:48:41;4.07;;;3.00;;
2320;SDS011;15376;48.540;9.268;2024-03-25T01:51:07;4.80;;;3.50;;
2320;SDS011;15376;48.540;9.268;2024-03-25T01:53:32;2.80;;;2.60;;
2320;SDS011;15376;48.540;9.268;2024-03-25T01:55:57;2.90;;;2.70;;
2320;SDS011;15376;48.540;9.268;2024-03-25T01:58:24;2.73;;;2.50;;
2320;SDS011;15376;48.540;9.268;2024-03-25T02:00:51;7.80;;;3.70;;
2320;SDS011;15376;48.540;9.268;2024-03-25T02:03:18;5.07;;;2.70;;
2320;SDS011;15376;48.540;9.268;2024-03-25T02:05:44;7.13;;;4.73;;
2320;SDS011;15376;48.540;9.268;2024-03-25T02:08:10;2.87;;;2.40;;
2320;SDS011;15376;48.540;9.268;2024-03-25T02:10:37;5.40;;;3.30;;
2320;SDS011;15376;48.540;9.268;2024-03-25T02:13:03;3.25;;;2.60;;
2320;SDS011;15376;48.540;9.268;2024-03-25T02:15:28;3.63;;;2.60;;
2320;SDS011;15376;48.540;9.268;2024-03-25T02:17:54;3.07;;;2.60;;
2320;SDS011;15376;48.540;9.268;2024-03-25T02:20:19;5.00;;;2.57;;
2320;SDS011;15376;48.540;9.268;2024-03-25T02:22:45;8.03;;;3.40;;
2320;SDS011;15376;48.540;9.268;2024-03-25T02:25:10;3.37;;;2.40;;
2320;SDS011;15376;48.540;9.268;2024-03-25T02:27:36;3.53;;;2.87;;
2320;SDS011;15376;48.540;9.268;2024-03-25T02:30:06;3.50;;;3.20;;
2320;SDS011;15376;48.540;9.268;2024-03-25T02:32:38;5.90;;;2.97;;
2320;SDS011;15376;48.540;9.268;2024-03-25T02:35:08;3.17;;;2.70;;
2320;SDS011;15376;48.540;9.268;2024-03-25T02:37:35;3.50;;;3.20;;
2320;SDS011;15376;48.540;9.268;2024-03-25T02:40:02;3.23;;;3.00;;
2320;SDS011;15376;48.540;9.268;2024-03-25T02:42:30;2.97;;;2.60;;
2320;SDS011;15376;48.540;9.268;2024-03-25T02:44:56;3.73;;;3.27;;
2320;SDS011;15376;48.540;9.268;2024-03-25T02:47:22;3.77;;;3.47;;
2320;SDS011;15376;48.540;9.268;2024-03-25T02:49:47;2.70;;;2.50;;
2320;SDS011;15376;48.540;9.268;2024-03-25T02:52:13;3.67;;;2.97;;
2320;SDS011;15376;48.540;9.268;2024-03-25T02:54:39;5.23;;;3.20;;
2320;SDS011;15376;48.540;9.268;2024-03-25T02:57:04;3.43;;;3.00;;
2320;SDS011;15376;48.540;9.268;2024-03-25T02:59:29;2.70;;;2.50;;
2320;SDS011;15376;48.540;9.268;2024-03-25T03:01:55;4.20;;;3.03;;
2320;SDS011;15376;48.540;9.268;2024-03-25T03:04:20;5.33;;;3.80;;
2320;SDS011;15376;48.540;9.268;2024-03-25T03:06:45;5.27;;;3.63;;
2320;SDS011;15376;48.540;9.268;2024-03-25T03:09:11;5.27;;;3.80;;
2320;SDS011;15376;48.540;9.268;2024-03-25T03:11:36;3.07;;;2.87;;
2320;SDS011;15376;48.540;9.268;2024-03-25T03:14:01;4.37;;;3.03;;
2320;SDS011;15376;48.540;9.268;2024-03-25T03:16:27;4.37;;;2.93;;
2320;SDS011;15376;48.540;9.268;2024-03-25T03:18:54;3.83;;;3.27;;
2320;SDS011;15376;48.540;9.268;2024-03-25T03:21:19;3.07;;;2.73;;
2320;SDS011;15376;48.540;9.268;2024-03-25T03:23:45;4.60;;;3.00;;
2320;SDS011;15376;48.540;9.268;2024-03-25T03:26:10;3.30;;;3.00;;
2320;SDS011;15376;48.540;9.268;2024-03-25T03:28:35;3.63;;;2.67;;
2320;SDS011;15376;48.540;9.268;2024-03-25T03:31:01;3.80;;;3.10;;
2320;SDS011;15376;48.540;9.268;2024-03-25T03:33:26;4.60;;;2.97;;
2320;SDS011;15376;48.540;9.268;2024-03-25T03:35:52;5.37;;;3.00;;
2320;SDS011;15376;48.540;9.268;2024-03-25T03:38:17;8.20;;;3.40;;
2320;SDS011;15376;48.540;9.268;2024-03-25T03:40:44;7.80;;;3.40;;
2320;SDS011;15376;48.540;9.268;2024-03-25T03:43:20;3.93;;;3.20;;
2320;SDS011;15376;48.540;9.268;2024-03-25T03:45:45;3.13;;;2.83;;
2320;SDS011;15376;48.540;9.268;2024-03-25T03:48:10;5.03;;;3.87;;
2320;SDS011;15376;48.540;9.268;2024-03-25T03:50:36;4.33;;;2.80;;
2320;SDS011;15376;48.540;9.268;2024-03-25T03:53:01;5.13;;;4.10;;
2320;SDS011;15376;48.540;9.268;2024-03-25T03:55:26;3.47;;;2.93;;
2320;SDS011;15376;48.540;9.268;2024-03-25T03:57:52;4.07;;;3.50;;
2320;SDS011;15376;48.540;9.268;2024-03-25T04:00:17;5.20;;;4.07;;
2320;SDS011;15376;48.540;9.268;2024-03-25T04:02:43;6.20;;;4.60;;
2320;SDS011;15376;48.540;9.268;2024-03-25T04:05:08;8.23;;;6.00;;
2320;SDS011;15376;48.540;9.268;2024-03-25T04:07:33;8.23;;;6.60;;
2320;SDS011;15376;48.540;9.268;2024-03-25T04:09:58;8.03;;;7.30;;
2320;SDS011;15376;48.540;9.268;2024-03-25T04:12:25;16.13;;;9.40;;
2320;SDS011;15376;48.540;9.268;2024-03-25T04:14:50;17.07;;;10.80;;
2320;SDS011;15376;48.540;9.268;2024-03-25T04:17:19;13.93;;;10.80;;
2320;SDS011;15376;48.540;9.268;2024-03-25T04:19:46;14.40;;;11.17;;
2320;SDS011;15376;48.540;9.268;2024-03-25T04:22:12;16.67;;;10.70;;
2320;SDS011;15376;48.540;9.268;2024-03-25T04:24:37;17.87;;;10.47;;
2320;SDS011;15376;48.540;9.268;2024-03-25T04:27:02;15.70;;;11.70;;
2320;SDS011;15376;48.540;9.268;2024-03-25T04:29:28;17.17;;;11.70;;
2320;SDS011;15376;48.540;9.268;2024-03-25T04:31:54;19.40;;;10.93;;
2320;SDS011;15376;48.540;9.268;2024-03-25T04:34:19;16.50;;;12.47;;
2320;SDS011;15376;48.540;9.268;2024-03-25T04:36:45;13.80;;;10.40;;
2320;SDS011;15376;48.540;9.268;2024-03-25T04:39:11;15.20;;;9.47;;
2320;SDS011;15376;48.540;9.268;2024-03-25T04:41:36;17.93;;;10.83;;
2320;SDS011;15376;48.540;9.268;2024-03-25T04:44:01;13.37;;;9.90;;
2320;SDS011;15376;48.540;9.268;2024-03-25T04:46:27;18.97;;;9.97;;
2320;SDS011;15376;48.540;9.268;2024-03-25T04:48:52;17.50;;;9.83;;
2320;SDS011;15376;48.540;9.268;2024-03-25T04:51:18;12.43;;;8.27;;
2320;SDS011;15376;48.540;9.268;2024-03-25T04:53:44;13.63;;;9.73;;
2320;SDS011;15376;48.540;9.268;2024-03-25T04:56:09;10.13;;;7.00;;
2320;SDS011;15376;48.540;9.268;2024-03-25T04:58:35;12.70;;;7.67;;
2320;SDS011;15376;48.540;9.268;2024-03-25T05:01:00;11.90;;;7.93;;
2320;SDS011;15376;48.540;9.268;2024-03-25T05:03:26;10.13;;;7.17;;
2320;SDS011;15376;48.540;9.268;2024-03-25T05:05:51;8.10;;;7.27;;
2320;SDS011;15376;48.540;9.268;2024-03-25T05:08:16;9.43;;;6.83;;
2320;SDS011;15376;48.540;9.268;2024-03-25T05:10:41;8.40;;;6.97;;
2320;SDS011;15376;48.540;9.268;2024-03-25T05:13:07;10.33;;;7.73;;
2320;SDS011;15376;48.540;9.268;2024-03-25T05:15:32;8.20;;;6.67;;
2320;SDS011;15376;48.540;9.268;2024-03-25T05:17:57;10.73;;;6.27;;
2320;SDS011;15376;48.540;9.268;2024-03-25T05:20:23;8.50;;;7.03;;
2320;SDS011;15376;48.540;9.268;2024-03-25T05:22:49;13.10;;;6.43;;
2320;SDS011;15376;48.540;9.268;2024-03-25T05:25:14;14.70;;;6.20;;
2320;SDS011;15376;48.540;9.268;2024-03-25T05:27:39;9.13;;;5.20;;
2320;SDS011;15376;48.540;9.268;2024-03-25T05:30:05;11.17;;;5.53;;
2320;SDS011;15376;48.540;9.268;2024-03-25T05:32:30;7.90;;;5.00;;
2320;SDS011;15376;48.540;9.268;2024-03-25T05:34:56;7.23;;;4.80;;
2320;SDS011;15376;48.540;9.268;2024-03-25T05:37:21;7.47;;;5.40;;
2320;SDS011;15376;48.540;9.268;2024-03-25T05:39:46;9.77;;;5.20;;
2320;SDS011;15376;48.540;9.268;2024-03-25T05:42:12;6.90;;;5.30;;
2320;SDS011;15376;48.540;9.268;2024-03-25T05:44:38;9.63;;;5.10;;
2320;SDS011;15376;48.540;9.268;2024-03-25T05:47:03;6.97;;;5.03;;
2320;SDS011;15376;48.540;9.268;2024-03-25T05:49:28;8.07;;;5.33;;
2320;SDS011;15376;48.540;9.268;2024-03-25T05:51:54;7.50;;;5.20;;
2320;SDS011;15376;48.540;9.268;2024-03-25T05:54:19;10.37;;;6.57;;
2320;SDS011;15376;48.540;9.268;2024-03-25T05:56:44;8.30;;;6.67;;
2320;SDS011;15376;48.540;9.268;2024-03-25T05:59:10;6.90;;;6.20;;
2320;SDS011;15376;48.540;9.268;2024-03-25T06:01:35;11.83;;;6.63;;
2320;SDS011;15376;48.540;9.268;2024-03-25T06:04:02;9.57;;;6.83;;
2320;SDS011;15376;48.540;9.268;2024-03-25T06:06:28;12.03;;;7.37;;
2320;SDS011;15376;48.540;9.268;2024-03-25T06:08:53;8.93;;;6.57;;
2320;SDS011;15376;48.540;9.268;2024-03-25T06:11:18;14.00;;;5.80;;
2320;SDS011;15376;48.540;9.268;2024-03-25T06:13:47;13.47;;;5.60;;
2320;SDS011;15376;48.540;9.268;2024-03-25T06:16:13;10.17;;;6.07;;
2320;SDS011;15376;48.540;9.268;2024-03-25T06:18:39;6.53;;;5.23;;
2320;SDS011;15376;48.540;9.268;2024-03-25T06:21:05;5.90;;;5.07;;
2320;SDS011;15376;48.540;9.268;2024-03-25T06:23:30;5.77;;;4.43;;
2320;SDS011;15376;48.540;9.268;2024-03-25T06:25:56;11.77;;;5.53;;
2320;SDS011;15376;48.540;9.268;2024-03-25T06:28:21;9.63;;;4.73;;
2320;SDS011;15376;48.540;9.268;2024-03-25T06:30:47;7.33;;;4.80;;
2320;SDS011;15376;48.540;9.268;2024-03-25T06:33:32;10.03;;;5.37;;
2320;SDS011;15376;48.540;9.268;2024-03-25T06:36:16;6.32;;;5.05;;
2320;SDS011;15376;48.540;9.268;2024-03-25T06:38:42;5.63;;;4.00;;
2320;SDS011;15376;48.540;9.268;2024-03-25T06:41:08;5.83;;;4.33;;
2320;SDS011;15376;48.540;9.268;2024-03-25T06:43:34;6.80;;;5.43;;
2320;SDS011;15376;48.540;9.268;2024-03-25T06:45:59;4.70;;;4.13;;
2320;SDS011;15376;48.540;9.268;2024-03-25T06:48:25;6.50;;;4.60;;
2320;SDS011;15376;48.540;9.268;2024-03-25T06:50:54;5.93;;;4.10;;
2320;SDS011;15376;48.540;9.268;2024-03-25T06:53:20;7.67;;;4.43;;
2320;SDS011;15376;48.540;9.268;2024-03-25T06:58:17;8.20;;;3.73;;
2320;SDS011;15376;48.540;9.268;2024-03-25T07:00:44;7.13;;;4.00;;
2320;SDS011;15376;48.540;9.268;2024-03-25T07:03:09;7.30;;;4.27;;
2320;SDS011;15376;48.540;9.268;2024-03-25T07:05:34;4.60;;;3.63;;
2320;SDS011;15376;48.540;9.268;2024-03-25T07:08:00;4.20;;;3.90;;
2320;SDS011;15376;48.540;9.268;2024-03-25T07:10:25;4.70;;;4.20;;
2320;SDS011;15376;48.540;9.268;2024-03-25T07:12:50;5.70;;;3.87;;
2320;SDS011;15376;48.540;9.268;2024-03-25T07:15:16;6.63;;;3.57;;
2320;SDS011;15376;48.540;9.268;2024-03-25T07:17:41;8.00;;;3.70;;
2320;SDS011;15376;48.540;9.268;2024-03-25T07:20:06;4.00;;;3.40;;
2320;SDS011;15376;48.540;9.268;2024-03-25T07:22:33;5.90;;;4.20;;
2320;SDS011;15376;48.540;9.268;2024-03-25T07:24:59;6.40;;;3.70;;
2320;SDS011;15376;48.540;9.268;2024-03-25T07:27:24;17.10;;;10.23;;
2320;SDS011;15376;48.540;9.268;2024-03-25T07:29:49;14.27;;;9.70;;
2320;SDS011;15376;48.540;9.268;2024-03-25T07:32:16;7.07;;;5.65;;
2320;SDS011;15376;48.540;9.268;2024-03-25T07:34:41;5.20;;;4.47;;
2320;SDS011;15376;48.540;9.268;2024-03-25T07:37:07;10.17;;;4.13;;
2320;SDS011;15376;48.540;9.268;2024-03-25T07:39:32;6.50;;;3.73;;
2320;SDS011;15376;48.540;9.268;2024-03-25T07:41:57;6.97;;;3.97;;
2320;SDS011;15376;48.540;9.268;2024-03-25T07:44:24;5.17;;;3.83;;
2320;SDS011;15376;48.540;9.268;2024-03-25T07:46:50;4.27;;;3.30;;
2320;SDS011;15376;48.540;9.268;2024-03-25T07:49:15;5.23;;;3.70;;
2320;SDS011;15376;48.540;9.268;2024-03-25T07:51:40;4.33;;;3.20;;
2320;SDS011;15376;48.540;9.268;2024-03-25T07:54:06;7.27;;;3.80;;
2320;SDS011;15376;48.540;9.268;2024-03-25T07:56:31;7.57;;;4.07;;
2320;SDS011;15376;48.540;9.268;2024-03-25T07:59:02;3.63;;;3.23;;
2320;SDS011;15376;48.540;9.268;2024-03-25T08:01:27;7.67;;;4.37;;
2320;SDS011;15376;48.540;9.268;2024-03-25T08:03:54;3.60;;;2.87;;
2320;SDS011;15376;48.540;9.268;2024-03-25T08:06:19;3.47;;;3.17;;
2320;SDS011;15376;48.540;9.268;2024-03-25T08:08:46;5.20;;;4.70;;
2320;SDS011;15376;48.540;9.268;2024-03-25T08:11:12;3.40;;;3.10;;
2320;SDS011;15376;48.540;9.268;2024-03-25T08:13:37;3.60;;;3.33;;
2320;SDS011;15376;48.540;9.268;2024-03-25T08:16:03;8.10;;;3.73;;
2320;SDS011;15376;48.540;9.268;2024-03-25T08:18:28;9.23;;;3.53;;
2320;SDS011;15376;48.540;9.268;2024-03-25T08:20:54;4.47;;;3.63;;
2320;SDS011;15376;48.540;9.268;2024-03-25T08:23:19;5.90;;;3.40;;
2320;SDS011;15376;48.540;9.268;2024-03-25T08:25:45;4.07;;;3.67;;
2320;SDS011;15376;48.540;9.268;2024-03-25T08:28:10;4.70;;;3.63;;
2320;SDS011;15376;48.540;9.268;2024-03-25T08:30:35;6.90;;;4.20;;
2320;SDS011;15376;48.540;9.268;2024-03-25T08:33:01;4.83;;;4.00;;
2320;SDS011;15376;48.540;9.268;2024-03-25T08:35:26;4.07;;;3.13;;
2320;SDS011;15376;48.540;9.268;2024-03-25T08:37:52;4.90;;;4.30;;
2320;SDS011;15376;48.540;9.268;2024-03-25T08:40:17;5.57;;;3.20;;
2320;SDS011;15376;48.540;9.268;2024-03-25T08:42:43;7.13;;;4.27;;
2320;SDS011;15376;48.540;9.268;2024-03-25T08:45:08;6.57;;;4.27;;
2320;SDS011;15376;48.540;9.268;2024-03-25T08:47:34;6.63;;;4.90;;
2320;SDS011;15376;48.540;9.268;2024-03-25T08:49:59;7.93;;;5.10;;
2320;SDS011;15376;48.540;9.268;2024-03-25T08:52:24;5.80;;;4.83;;
2320;SDS011;15376;48.540;9.268;2024-03-25T08:54:50;6.07;;;3.70;;
2320;SDS011;15376;48.540;9.268;2024-03-25T08:57:15;7.07;;;5.17;;
2320;SDS011;15376;48.540;9.268;2024-03-25T08:59:40;9.83;;;6.30;;
2320;SDS011;15376;48.540;9.268;2024-03-25T09:02:06;9.77;;;4.90;;
2320;SDS011;15376;48.540;9.268;2024-03-25T09:04:32;4.37;;;3.63;;
2320;SDS011;15376;48.540;9.268;2024-03-25T09:06:58;4.40;;;4.00;;
2320;SDS011;15376;48.540;9.268;2024-03-25T09:09:23;7.17;;;4.30;;
2320;SDS011;15376;48.540;9.268;2024-03-25T09:12:07;5.77;;;3.77;;
2320;SDS011;15376;48.540;9.268;2024-03-25T09:14:33;6.03;;;3.37;;
2320;SDS011;15376;48.540;9.268;2024-03-25T09:16:58;4.63;;;3.50;;
2320;SDS011;15376;48.540;9.268;2024-03-25T09:19:24;5.37;;;3.53;;
2320;SDS011;15376;48.540;9.268;2024-03-25T09:21:49;4.60;;;3.60;;
2320;SDS011;15376;48.540;9.268;2024-03-25T09:24:14;6.83;;;3.77;;
2320;SDS011;15376;48.540;9.268;2024-03-25T09:26:40;4.53;;;2.90;;
2320;SDS011;15376;48.540;9.268;2024-03-25T09:29:05;3.27;;;2.97;;
2320;SDS011;15376;48.540;9.268;2024-03-25T09:31:31;4.93;;;3.13;;
2320;SDS011;15376;48.540;9.268;2024-03-25T09:33:56;3.90;;;3.17;;
2320;SDS011;15376;48.540;9.268;2024-03-25T09:36:22;6.60;;;3.57;;
2320;SDS011;15376;48.540;9.268;2024-03-25T09:38:47;4.93;;;3.30;;
2320;SDS011;15376;48.540;9.268;2024-03-25T09:41:12;8.47;;;3.77;;
2320;SDS011;15376;48.540;9.268;2024-03-25T09:46:13;4.10;;;2.60;;
2320;SDS011;15376;48.540;9.268;2024-03-25T09:48:38;3.00;;;2.60;;
2320;SDS011;15376;48.540;9.268;2024-03-25T09:51:05;3.50;;;2.70;;
2320;SDS011;15376;48.540;9.268;2024-03-25T09:53:31;4.70;;;3.10;;
2320;SDS011;15376;48.540;9.268;2024-03-25T09:55:56;2.80;;;2.57;;
2320;SDS011;15376;48.540;9.268;2024-03-25T09:58:22;2.70;;;2.50;;
2320;SDS011;15376;48.540;9.268;2024-03-25T10:00:52;3.40;;;2.23;;
2320;SDS011;15376;48.540;9.268;2024-03-25T10:03:18;7.00;;;2.87;;
2320;SDS011;15376;48.540;9.268;2024-03-25T10:05:43;3.47;;;3.03;;
2320;SDS011;15376;48.540;9.268;2024-03-25T10:08:09;3.20;;;2.70;;
2320;SDS011;15376;48.540;9.268;2024-03-25T10:10:34;3.23;;;2.83;;
2320;SDS011;15376;48.540;9.268;2024-03-25T10:13:02;3.10;;;2.73;;
2320;SDS011;15376;48.540;9.268;2024-03-25T10:15:31;5.53;;;3.70;;
2320;SDS011;15376;48.540;9.268;2024-03-25T10:17:57;5.97;;;3.73;;
2320;SDS011;15376;48.540;9.268;2024-03-25T10:20:22;4.70;;;3.70;;
2320;SDS011;15376;48.540;9.268;2024-03-25T10:22:48;7.70;;;5.43;;
2320;SDS011;15376;48.540;9.268;2024-03-25T10:25:28;4.83;;;3.70;;
2320;SDS011;15376;48.540;9.268;2024-03-25T10:30:25;3.30;;;3.00;;
2320;SDS011;15376;48.540;9.268;2024-03-25T10:33:01;3.17;;;2.83;;
2320;SDS011;15376;48.540;9.268;2024-03-25T10:35:27;4.63;;;2.80;;
2320;SDS011;15376;48.540;9.268;2024-03-25T10:37:55;3.47;;;2.70;;
2320;SDS011;15376;48.540;9.268;2024-03-25T10:40:25;2.70;;;2.47;;
2320;SDS011;15376;48.540;9.268;2024-03-25T10:42:53;4.50;;;2.57;;
2320;SDS011;15376;48.540;9.268;2024-03-25T10:45:25;6.13;;;3.37;;
2320;SDS011;15376;48.540;9.268;2024-03-25T10:47:53;3.37;;;3.07;;
2320;SDS011;15376;48.540;9.268;2024-03-25T10:50:22;6.30;;;5.70;;
2320;SDS011;15376;48.540;9.268;2024-03-25T10:52:52;7.17;;;6.30;;
2320;SDS011;15376;48.540;9.268;2024-03-25T10:55:18;3.60;;;2.67;;
2320;SDS011;15376;48.540;9.268;2024-03-25T10:57:45;3.27;;;3.00;;
2320;SDS011;15376;48.540;9.268;2024-03-25T11:00:12;2.90;;;2.50;;
2320;SDS011;15376;48.540;9.268;2024-03-25T11:02:40;4.70;;;2.83;;
2320;SDS011;15376;48.540;9.268;2024-03-25T11:05:07;2.63;;;2.40;;
2320;SDS011;15376;48.540;9.268;2024-03-25T11:07:34;3.07;;;2.50;;
2320;SDS011;15376;48.540;9.268;2024-03-25T11:10:05;2.30;;;2.07;;
2320;SDS011;15376;48.540;9.268;2024-03-25T11:12:35;3.00;;;2.10;;
2320;SDS011;15376;48.540;9.268;2024-03-25T11:15:10;2.70;;;2.50;;
2320;SDS011;15376;48.540;9.268;2024-03-25T11:17:35;4.53;;;3.37;;
2320;SDS011;15376;48.540;9.268;2024-03-25T11:20:11;3.33;;;3.03;;
2320;SDS011;15376;48.540;9.268;2024-03-25T11:22:51;3.50;;;3.00;;
2320;SDS011;15376;48.540;9.268;2024-03-25T11:25:17;3.20;;;2.53;;
2320;SDS011;15376;48.540;9.268;2024-03-25T11:27:44;3.10;;;2.70;;
2320;SDS011;15376;48.540;9.268;2024-03-25T11:30:12;3.40;;;2.60;;
2320;SDS011;15376;48.540;9.268;2024-03-25T11:32:46;2.90;;;2.50;;
2320;SDS011;15376;48.540;9.268;2024-03-25T11:35:16;3.60;;;2.43;;
2320;SDS011;15376;48.540;9.268;2024-03-25T11:37:42;5.20;;;2.80;;
2320;SDS011;15376;48.540;9.268;2024-03-25T11:40:08;3.97;;;2.13;;
2320;SDS011;15376;48.540;9.268;2024-03-25T11:42:46;2.73;;;2.53;;
2320;SDS011;15376;48.540;9.268;2024-03-25T11:45:21;5.00;;;3.10;;
2320;SDS011;15376;48.540;9.268;2024-03-25T11:47:47;4.03;;;3.00;;
2320;SDS011;15376;48.540;9.268;2024-03-25T11:50:17;2.83;;;2.60;;
2320;SDS011;15376;48.540;9.268;2024-03-25T11:52:43;4.27;;;3.13;;
2320;SDS011;15376;48.540;9.268;2024-03-25T11:55:09;3.10;;;2.70;;
2320;SDS011;15376;48.540;9.268;2024-03-25T11:57:36;7.70;;;2.73;;
2320;SDS011;15376;48.540;9.268;2024-03-25T12:00:03;5.00;;;2.90;;
2320;SDS011;15376;48.540;9.268;2024-03-25T12:02:30;3.40;;;2.93;;
2320;SDS011;15376;48.540;9.268;2024-03-25T12:04:56;4.03;;;2.83;;
2320;SDS011;15376;48.540;9.268;2024-03-25T12:07:21;5.67;;;3.27;;
2320;SDS011;15376;48.540;9.268;2024-03-25T12:09:47;2.80;;;2.50;;
2320;SDS011;15376;48.540;9.268;2024-03-25T12:12:32;4.20;;;2.80;;
2320;SDS011;15376;48.540;9.268;2024-03-25T12:14:57;4.03;;;2.90;;
2320;SDS011;15376;48.540;9.268;2024-03-25T12:17:23;4.00;;;2.47;;
2320;SDS011;15376;48.540;9.268;2024-03-25T12:19:58;4.70;;;2.20;;
2320;SDS011;15376;48.540;9.268;2024-03-25T12:22:31;4.47;;;2.87;;
2320;SDS011;15376;48.540;9.268;2024-03-25T12:24:58;2.90;;;2.60;;
2320;SDS011;15376;48.540;9.268;2024-03-25T12:27:24;2.50;;;2.10;;
2320;SDS011;15376;48.540;9.268;2024-03-25T12:32:45;3.07;;;2.00;;
2320;SDS011;15376;48.540;9.268;2024-03-25T12:35:14;3.57;;;2.03;;
2320;SDS011;15376;48.540;9.268;2024-03-25T12:37:41;9.00;;;4.40;;
2320;SDS011;15376;48.540;9.268;2024-03-25T12:40:10;3.33;;;2.80;;
2320;SDS011;15376;48.540;9.268;2024-03-25T12:42:36;2.50;;;2.07;;
2320;SDS011;15376;48.540;9.268;2024-03-25T12:45:02;2.83;;;2.10;;
2320;SDS011;15376;48.540;9.268;2024-03-25T12:47:29;2.27;;;2.03;;
2320;SDS011;15376;48.540;9.268;2024-03-25T12:49:56;3.40;;;2.40;;
2320;SDS011;15376;48.540;9.268;2024-03-25T12:52:22;4.33;;;2.37;;
2320;SDS011;15376;48.540;9.268;2024-03-25T12:54:47;5.47;;;2.53;;
2320;SDS011;15376;48.540;9.268;2024-03-25T12:57:12;5.30;;;2.70;;
2320;SDS011;15376;48.540;9.268;2024-03-25T12:59:38;3.70;;;2.60;;
2320;SDS011;15376;48.540;9.268;2024-03-25T13:02:03;2.70;;;2.20;;
2320;SDS011;15376;48.540;9.268;2024-03-25T13:04:29;3.30;;;2.73;;
2320;SDS011;15376;48.540;9.268;2024-03-25T13:06:54;2.57;;;2.37;;
2320;SDS011;15376;48.540;9.268;2024-03-25T13:09:20;2.40;;;2.20;;
2320;SDS011;15376;48.540;9.268;2024-03-25T13:11:45;4.87;;;2.20;;
2320;SDS011;15376;48.540;9.268;2024-03-25T13:14:11;7.93;;;3.30;;
2320;SDS011;15376;48.540;9.268;2024-03-25T13:16:37;8.67;;;3.67;;
2320;SDS011;15376;48.540;9.268;2024-03-25T13:19:03;2.60;;;2.10;;
2320;SDS011;15376;48.540;9.268;2024-03-25T13:21:29;3.07;;;2.07;;
2320;SDS011;15376;48.540;9.268;2024-03-25T13:23:54;2.27;;;2.07;;
2320;SDS011;15376;48.540;9.268;2024-03-25T13:26:20;3.50;;;2.37;;
2320;SDS011;15376;48.540;9.268;2024-03-25T13:28:45;2.60;;;2.10;;
2320;SDS011;15376;48.540;9.268;2024-03-25T13:31:11;2.37;;;2.10;;
2320;SDS011;15376;48.540;9.268;2024-03-25T13:33:37;3.37;;;2.60;;
2320;SDS011;15376;48.540;9.268;2024-03-25T13:36:03;3.30;;;2.87;;
2320;SDS011;15376;48.540;9.268;2024-03-25T13:38:32;3.17;;;2.20;;
2320;SDS011;15376;48.540;9.268;2024-03-25T13:41:01;2.20;;;2.10;;
2320;SDS011;15376;48.540;9.268;2024-03-25T13:43:26;4.47;;;2.47;;
2320;SDS011;15376;48.540;9.268;2024-03-25T13:45:52;3.23;;;1.50;;
2320;SDS011;15376;48.540;9.268;2024-03-25T13:48:17;3.33;;;2.20;;
2320;SDS011;15376;48.540;9.268;2024-03-25T13:50:42;1.80;;;1.70;;
2320;SDS011;15376;48.540;9.268;2024-03-25T13:53:08;2.00;;;1.80;;
2320;SDS011;15376;48.540;9.268;2024-03-25T13:55:34;3.70;;;1.80;;
2320;SDS011;15376;48.540;9.268;2024-03-25T13:57:59;2.63;;;1.43;;
2320;SDS011;15376;48.540;9.268;2024-03-25T14:00:24;5.57;;;1.70;;
2320;SDS011;15376;48.540;9.268;2024-03-25T14:02:53;4.80;;;1.63;;
2320;SDS011;15376;48.540;9.268;2024-03-25T14:05:21;2.10;;;1.40;;
2320;SDS011;15376;48.540;9.268;2024-03-25T14:07:48;3.33;;;1.93;;
2320;SDS011;15376;48.540;9.268;2024-03-25T14:10:14;2.80;;;1.67;;
2320;SDS011;15376;48.540;9.268;2024-03-25T14:12:39;2.97;;;1.60;;
2320;SDS011;15376;48.540;9.268;2024-03-25T14:15:05;3.80;;;1.80;;
2320;SDS011;15376;48.540;9.268;2024-03-25T14:17:31;3.70;;;1.50;;
2320;SDS011;15376;48.540;9.268;2024-03-25T14:19:57;2.73;;;2.03;;
2320;SDS011;15376;48.540;9.268;2024-03-25T14:22:22;3.57;;;1.60;;
2320;SDS011;15376;48.540;9.268;2024-03-25T14:24:48;2.17;;;1.80;;
2320;SDS011;15376;48.540;9.268;2024-03-25T14:27:14;5.00;;;2.07;;
2320;SDS011;15376;48.540;9.268;2024-03-25T14:29:40;2.47;;;1.93;;
2320;SDS011;15376;48.540;9.268;2024-03-25T14:32:06;1.80;;;1.63;;
2320;SDS011;15376;48.540;9.268;2024-03-25T14:34:32;2.83;;;1.80;;
2320;SDS011;15376;48.540;9.268;2024-03-25T14:36:58;2.73;;;1.90;;
2320;SDS011;15376;48.540;9.268;2024-03-25T14:39:26;1.80;;;1.70;;
2320;SDS011;15376;48.540;9.268;2024-03-25T14:41:51;1.73;;;1.63;;
2320;SDS011;15376;48.540;9.268;2024-03-25T14:44:16;1.97;;;1.70;;
2320;SDS011;15376;48.540;9.268;2024-03-25T14:46:42;1.67;;;1.57;;
2320;SDS011;15376;48.540;9.268;2024-03-25T14:49:07;2.17;;;1.70;;
2320;SDS011;15376;48.540;9.268;2024-03-25T14:51:32;2.33;;;1.50;;
2320;SDS011;15376;48.540;9.268;2024-03-25T14:53:58;2.47;;;1.90;;
2320;SDS011;15376;48.540;9.268;2024-03-25T14:56:24;2.50;;;1.83;;
2320;SDS011;15376;48.540;9.268;2024-03-25T14:58:50;1.97;;;1.53;;
2320;SDS011;15376;48.540;9.268;2024-03-25T15:01:15;3.27;;;1.93;;
2320;SDS011;15376;48.540;9.268;2024-03-25T15:03:40;2.13;;;1.70;;
2320;SDS011;15376;48.540;9.268;2024-03-25T15:06:06;3.33;;;2.00;;